Time;durP1;ratioP1;P1;durP2;ratioP2;P2;SDS_P1;SDS_P2;PMS_P1;PMS_P2;Temp;Humidity;BMP_temperature;BMP_pressure;BME280_temperature;BME280_humidity;BME280_pressure;Samples;Min_cycle;Max_cycle;Signal;HPM_P1;HPM_P2
2023/06/23 00:01:36;;;;;;;5.80;3.80;;;20.50;99.90;;;20.79;70.60;101198.91;4998044;27;97291;-42
2023/06/23 00:04:02;;;;;;;7.03;4.43;;;20.50;99.90;;;20.80;70.58;101195.25;5003920;27;97646;-43
2023/06/23 00:06:28;;;;;;;6.47;4.33;;;20.60;99.90;;;20.80;70.53;101195.25;4998025;27;97536;-41
2023/06/23 00:08:54;;;;;;;6.63;4.20;;;20.60;99.90;;;20.82;70.70;101187.97;4995159;27;97489;-41
2023/06/23 00:11:20;;;;;;;6.23;3.80;;;20.60;99.90;;;20.82;70.40;101192.47;4996402;27;102955;-44
2023/06/23 00:13:46;;;;;;;5.80;3.93;;;20.60;99.90;;;20.78;70.41;101194.50;5008373;27;115481;-42
2023/06/23 00:16:12;;;;;;;7.50;4.07;;;20.60;99.90;;;20.69;70.55;101198.69;4994383;27;97545;-43
2023/06/23 00:18:41;;;;;;;5.03;3.77;;;20.50;99.90;;;20.77;70.01;101201.69;4984173;27;97550;-44
2023/06/23 00:21:10;;;;;;;6.50;3.63;;;20.60;99.90;;;20.69;70.50;101208.56;4989398;27;97613;-42
2023/06/23 00:23:37;;;;;;;7.10;4.13;;;20.50;99.90;;;20.66;70.42;101208.75;4996323;27;97465;-47
2023/06/23 00:26:04;;;;;;;10.60;3.67;;;20.50;99.90;;;20.62;70.86;101208.13;4990808;27;97435;-43
2023/06/23 00:28:30;;;;;;;8.83;4.30;;;20.40;99.90;;;20.61;70.98;101210.91;4998478;27;97381;-41
2023/06/23 00:30:56;;;;;;;5.80;4.00;;;20.40;99.90;;;20.48;70.57;101214.41;4993151;27;117509;-44
2023/06/23 00:33:22;;;;;;;7.40;3.77;;;20.40;99.90;;;20.49;71.24;101221.50;4997651;27;97257;-42
2023/06/23 00:35:48;;;;;;;4.87;3.53;;;20.30;99.90;;;20.50;71.18;101233.94;5000704;27;108358;-43
2023/06/23 00:38:14;;;;;;;5.00;3.63;;;20.30;99.90;;;20.56;70.97;101226.47;5002402;27;98142;-42
2023/06/23 00:40:40;;;;;;;5.60;3.60;;;20.40;99.90;;;20.53;70.71;101232.00;5000487;27;127188;-42
2023/06/23 00:43:07;;;;;;;3.83;2.80;;;20.30;99.90;;;20.46;70.95;101243.16;4996776;27;111913;-43
2023/06/23 00:45:33;;;;;;;8.13;4.00;;;20.30;99.90;;;20.45;70.52;101240.56;4999832;27;97146;-41
2023/06/23 00:48:01;;;;;;;4.57;3.13;;;20.30;99.90;;;20.57;70.43;101245.09;4985919;27;101313;-43
2023/06/23 00:50:27;;;;;;;7.87;3.47;;;20.30;99.90;;;20.64;69.99;101238.34;4994416;27;97555;-42
2023/06/23 00:52:53;;;;;;;3.73;2.70;;;20.40;99.90;;;20.65;70.19;101236.53;5005770;27;98236;-41
2023/06/23 00:55:27;;;;;;;4.17;2.70;;;20.50;99.90;;;20.70;69.19;101239.75;4984256;27;97145;-46
2023/06/23 00:57:56;;;;;;;4.83;2.93;;;20.50;99.90;;;20.66;69.05;101246.28;5003257;27;97332;-41
2023/06/23 01:00:24;;;;;;;6.27;3.70;;;20.50;99.90;;;20.59;69.11;101255.72;4994734;27;101193;-43
2023/06/23 01:02:53;;;;;;;6.80;2.97;;;20.40;99.90;;;20.68;69.69;101257.75;5005054;27;100524;-43
2023/06/23 01:05:27;;;;;;;5.93;3.77;;;20.50;99.90;;;20.66;69.09;101257.00;4994268;27;97347;-44
2023/06/23 01:08:30;;;;;;;5.63;3.00;;;20.50;99.90;;;20.62;69.01;101271.59;5003174;27;97467;-44
2023/06/23 01:11:18;;;;;;;5.03;2.80;;;20.40;99.90;;;20.66;69.10;101270.41;4992991;27;102208;-42
2023/06/23 01:14:11;;;;;;;4.80;2.80;;;20.40;99.90;;;20.58;68.83;101288.84;4997965;27;99612;-42
2023/06/23 01:17:04;;;;;;;4.30;2.57;;;20.30;99.90;;;20.64;69.28;101291.94;4995149;27;97403;-45
2023/06/23 01:20:09;;;;;;;5.27;2.87;;;20.40;99.90;;;20.71;68.95;101289.72;4998997;27;97322;-41
2023/06/23 01:23:20;;;;;;;5.07;2.60;;;20.40;99.90;;;20.78;68.43;101294.56;4998017;27;102888;-42
2023/06/23 01:25:48;;;;;;;6.30;2.93;;;20.50;99.90;;;20.75;68.45;101304.63;4996356;27;99798;-42
2023/06/23 01:28:45;;;;;;;3.10;2.30;;;20.50;99.90;;;20.82;68.03;101313.97;4998367;27;97654;-42
2023/06/23 01:31:18;;;;;;;4.17;2.70;;;20.50;99.90;;;20.79;68.14;101316.84;4992921;27;97363;-44
2023/06/23 01:33:56;;;;;;;8.53;2.67;;;20.50;99.90;;;20.85;68.32;101324.50;5004825;27;100433;-42
2023/06/23 01:36:34;;;;;;;4.83;2.90;;;20.50;99.90;;;20.89;67.51;101328.69;4993412;27;102615;-41
2023/06/23 01:39:03;;;;;;;4.73;2.93;;;20.60;99.90;;;20.87;67.48;101346.72;4991511;27;97196;-44
2023/06/23 01:41:42;;;;;;;3.63;2.67;;;20.60;99.90;;;20.82;67.03;101346.13;4984692;27;97029;-45
2023/06/23 01:44:14;;;;;;;3.87;2.77;;;20.50;99.90;;;20.94;67.49;101347.13;4997149;27;97606;-47
2023/06/23 01:46:44;;;;;;;3.07;2.10;;;20.60;99.90;;;20.93;67.54;101346.28;4996928;27;97016;-41
2023/06/23 01:49:16;;;;;;;3.27;2.17;;;20.70;99.90;;;21.02;66.89;101348.34;4997007;27;97269;-44
2023/06/23 01:51:47;;;;;;;5.77;2.60;;;20.80;99.90;;;21.09;67.01;101357.66;5002143;27;97486;-41
2023/06/23 01:54:14;;;;;;;3.73;2.37;;;20.80;99.90;;;21.06;65.73;101357.88;4999833;27;97212;-41
2023/06/23 01:56:42;;;;;;;3.93;2.33;;;20.80;99.90;;;21.10;65.81;101359.38;4994165;27;97903;-41
2023/06/23 01:59:13;;;;;;;3.83;2.10;;;20.90;99.90;;;20.99;66.03;101367.34;4998512;27;97720;-43
2023/06/23 02:01:42;;;;;;;4.23;2.87;;;20.80;99.90;;;20.97;66.68;101368.38;5000264;27;97521;-41
2023/06/23 02:04:09;;;;;;;3.97;2.23;;;20.70;99.90;;;21.05;66.76;101366.03;4992134;27;97116;-42
2023/06/23 02:06:37;;;;;;;5.93;2.23;;;20.70;99.90;;;21.03;66.52;101373.34;4982181;27;98948;-44
2023/06/23 02:09:10;;;;;;;3.67;2.63;;;20.80;99.90;;;21.01;66.27;101386.84;5001446;27;97063;-41
2023/06/23 02:11:36;;;;;;;9.37;2.60;;;20.70;99.90;;;20.94;66.83;101390.91;5002879;27;97009;-45
2023/06/23 02:14:03;;;;;;;3.00;2.20;;;20.60;99.90;;;20.97;67.09;101384.47;5000637;27;97477;-44
2023/06/23 02:16:33;;;;;;;3.60;2.00;;;20.60;99.90;;;20.99;66.23;101393.28;5005973;27;98261;-41
2023/06/23 02:19:00;;;;;;;4.30;2.23;;;20.70;99.90;;;20.96;66.97;101388.97;5011438;27;96959;-41
2023/06/23 02:21:27;;;;;;;5.77;2.87;;;20.60;99.90;;;21.00;66.73;101390.50;5008928;27;97096;-48
2023/06/23 02:23:54;;;;;;;5.53;2.50;;;20.60;99.90;;;20.99;66.67;101388.78;5008589;27;115166;-41
2023/06/23 02:26:25;;;;;;;3.27;2.33;;;20.70;99.90;;;21.00;66.67;101390.50;5007854;27;109370;-43
2023/06/23 02:28:52;;;;;;;4.90;2.13;;;20.70;99.90;;;20.96;66.36;101394.34;5005884;27;96769;-41
2023/06/23 02:31:23;;;;;;;4.40;2.93;;;20.70;99.90;;;21.06;66.68;101398.13;5005736;27;96898;-42
2023/06/23 02:33:50;;;;;;;11.60;2.70;;;20.80;99.90;;;21.16;65.67;101405.56;5010304;27;101875;-43
2023/06/23 02:36:21;;;;;;;4.10;2.40;;;20.90;99.90;;;21.22;65.93;101413.16;4997528;27;99553;-42
2023/06/23 02:38:49;;;;;;;3.80;2.47;;;20.90;99.90;;;21.10;66.01;101406.81;4998782;27;97293;-41
2023/06/23 02:41:17;;;;;;;4.37;2.63;;;20.80;99.90;;;21.08;65.70;101414.09;5002664;27;97535;-42
2023/06/23 02:43:56;;;;;;;2.90;2.03;;;20.70;99.90;;;21.09;65.80;101416.69;5003574;27;97570;-41
2023/06/23 02:46:27;;;;;;;3.70;2.17;;;20.80;99.90;;;21.06;65.95;101416.91;5000040;27;106834;-43
2023/06/23 02:49:02;;;;;;;3.50;2.37;;;20.70;99.90;;;21.10;66.10;101423.75;5001715;27;97303;-44
2023/06/23 02:51:30;;;;;;;5.67;2.70;;;20.80;99.90;;;21.12;65.79;101421.00;4997415;27;97602;-42
2023/06/23 02:54:04;;;;;;;3.53;2.13;;;20.80;99.90;;;21.14;66.13;101429.81;5002303;27;97992;-42
2023/06/23 02:56:33;;;;;;;6.10;2.73;;;20.80;99.90;;;21.19;65.94;101437.53;4997953;27;99771;-43
2023/06/23 02:59:05;;;;;;;4.27;2.47;;;20.80;99.90;;;21.19;65.72;101437.53;4993847;27;97093;-42
2023/06/23 03:01:39;;;;;;;3.93;1.97;;;20.80;99.90;;;21.15;65.64;101442.25;5011694;27;97117;-43
2023/06/23 03:04:05;;;;;;;3.90;2.30;;;20.80;99.90;;;21.10;65.60;101445.22;4998970;27;99519;-43
2023/06/23 03:06:34;;;;;;;3.60;2.10;;;20.70;99.90;;;21.06;65.87;101441.03;4993900;27;97413;-41
2023/06/23 03:09:03;;;;;;;5.27;2.30;;;20.70;99.90;;;20.93;65.61;101437.44;4998234;27;97439;-41
2023/06/23 03:11:30;;;;;;;4.37;2.27;;;20.70;99.90;;;20.86;65.33;101441.53;4997392;27;97429;-41
2023/06/23 03:13:57;;;;;;;4.43;2.37;;;20.60;99.90;;;20.87;66.53;101443.22;4996689;27;97276;-42
2023/06/23 03:16:34;;;;;;;5.03;2.40;;;20.50;99.90;;;20.93;65.90;101445.50;4999368;27;100886;-42
2023/06/23 03:19:30;;;;;;;5.63;2.90;;;20.60;99.90;;;20.93;65.80;101447.31;4995483;27;97287;-42
2023/06/23 03:22:14;;;;;;;2.90;2.60;;;20.60;99.90;;;20.89;65.79;101452.03;4994064;27;98568;-42
2023/06/23 03:24:44;;;;;;;4.97;2.87;;;20.60;99.90;;;20.89;66.22;101465.44;4994328;27;102353;-43
2023/06/23 03:27:11;;;;;;;7.10;3.30;;;20.60;99.90;;;20.90;65.95;101459.13;4998485;27;97523;-41
2023/06/23 03:29:47;;;;;;;9.67;2.73;;;20.60;99.90;;;20.90;65.88;101464.47;4996492;27;97491;-44
2023/06/23 03:32:24;;;;;;;6.17;2.87;;;20.60;99.90;;;20.90;66.16;101467.16;4994481;27;97431;-45
2023/06/23 03:35:02;;;;;;;4.00;2.40;;;20.60;99.90;;;20.94;66.29;101468.66;4995025;27;101762;-43
2023/06/23 03:40:14;;;;;;;5.53;2.97;;;20.70;99.90;;;20.90;66.20;101475.19;5132212;22;97472;-43
2023/06/23 03:42:47;;;;;;;4.80;3.27;;;20.60;99.90;;;20.92;65.91;101486.69;4941374;28;97041;-43
2023/06/23 03:45:16;;;;;;;5.33;3.40;;;20.60;99.90;;;20.92;65.84;101493.88;4957612;28;97440;-44
2023/06/23 03:47:43;;;;;;;7.10;2.97;;;20.60;99.90;;;20.91;65.99;101509.09;4939512;28;97100;-43
2023/06/23 03:50:19;;;;;;;5.80;3.20;;;20.60;99.90;;;20.90;65.90;101514.56;4941623;28;99049;-45
2023/06/23 03:52:46;;;;;;;3.97;3.00;;;20.60;99.90;;;20.83;66.37;101515.91;4940854;28;97278;-43
2023/06/23 03:55:13;;;;;;;6.20;3.83;;;20.50;99.90;;;20.81;66.89;101518.69;4947385;28;111456;-43
2023/06/23 03:57:41;;;;;;;5.97;3.13;;;20.50;99.90;;;20.78;66.63;101529.63;4940067;28;97668;-46
2023/06/23 04:00:09;;;;;;;6.10;3.50;;;20.50;99.90;;;20.77;66.30;101519.88;4955859;28;99546;-43
2023/06/23 04:02:36;;;;;;;5.03;3.23;;;20.50;99.90;;;20.81;66.09;101524.06;4926673;28;97490;-43
2023/06/23 04:05:05;;;;;;;8.43;3.30;;;20.50;99.90;;;20.85;66.43;101520.25;4908509;28;99121;-44
2023/06/23 04:07:33;;;;;;;6.07;3.27;;;20.60;99.90;;;20.82;66.52;101525.78;4960247;28;97352;-43
2023/06/23 04:10:03;;;;;;;11.77;3.30;;;20.60;99.90;;;20.89;65.70;101527.13;4940366;28;103218;-44
2023/06/23 04:12:31;;;;;;;5.93;3.00;;;20.60;99.90;;;20.90;65.18;101536.03;4938455;28;97133;-43
2023/06/23 04:14:59;;;;;;;3.83;2.43;;;20.70;99.90;;;20.91;65.78;101527.88;4953440;28;113958;-43
2023/06/23 04:17:28;;;;;;;5.17;3.87;;;20.70;99.90;;;20.94;65.99;101535.72;4944703;28;101163;-43
2023/06/23 04:19:57;;;;;;;9.33;3.63;;;20.60;99.90;;;21.00;65.86;101540.69;4937481;28;99322;-44
2023/06/23 04:22:25;;;;;;;6.93;3.77;;;20.70;99.90;;;21.00;65.40;101535.34;4944714;28;96952;-43
2023/06/23 04:24:55;;;;;;;8.10;4.00;;;20.70;99.90;;;20.89;66.05;101547.72;4954508;28;120043;-42
2023/06/23 04:27:22;;;;;;;8.23;3.93;;;20.60;99.90;;;20.91;65.82;101557.38;4936988;28;101109;-43
2023/06/23 04:29:51;;;;;;;6.20;3.70;;;20.60;99.90;;;20.93;65.98;101562.63;4955203;28;107852;-47
2023/06/23 04:32:17;;;;;;;7.10;4.17;;;20.50;99.90;;;20.96;65.63;101557.94;4960401;28;97078;-45
2023/06/23 04:34:43;;;;;;;4.63;3.33;;;20.60;99.90;;;20.95;65.43;101564.25;4948471;28;97343;-44
2023/06/23 04:37:18;;;;;;;7.17;3.83;;;20.70;99.90;;;20.97;65.86;101573.06;4954436;28;97533;-43
2023/06/23 04:40:16;;;;;;;5.63;3.23;;;20.70;99.90;;;20.97;65.44;101573.06;4925488;28;98729;-43
2023/06/23 04:43:13;;;;;;;8.40;4.10;;;20.70;99.90;;;20.99;65.33;101573.84;4939434;28;104351;-45
2023/06/23 04:45:50;;;;;;;6.70;3.87;;;20.70;99.90;;;20.93;65.10;101571.53;4942106;28;102455;-43
2023/06/23 04:48:23;;;;;;;7.00;4.27;;;20.60;99.90;;;21.01;65.78;101579.09;4938627;28;97190;-45
2023/06/23 04:50:52;;;;;;;8.50;4.53;;;20.70;99.90;;;20.97;65.17;101581.09;4940291;28;97125;-43
2023/06/23 04:53:23;;;;;;;6.63;4.33;;;20.70;99.90;;;20.98;65.15;101582.84;4949169;28;98406;-43
2023/06/23 04:55:54;;;;;;;8.53;4.47;;;20.70;99.90;;;21.02;65.73;101586.19;4942992;28;101959;-44
2023/06/23 04:58:23;;;;;;;8.83;4.80;;;20.60;99.90;;;21.11;65.34;101588.25;4941173;28;103221;-43
2023/06/23 05:00:51;;;;;;;8.37;4.80;;;20.80;99.90;;;21.17;65.16;101584.34;4939706;28;97471;-45
2023/06/23 05:03:18;;;;;;;5.87;4.07;;;20.80;99.90;;;21.19;65.04;101587.78;4952481;28;97268;-44
2023/06/23 05:05:45;;;;;;;6.77;4.47;;;20.90;99.90;;;21.19;65.08;101590.44;4936059;28;97984;-43
2023/06/23 05:08:13;;;;;;;7.13;3.97;;;20.90;99.90;;;21.22;64.92;101600.97;4941339;28;98088;-46
2023/06/23 05:10:41;;;;;;;7.57;4.73;;;20.90;99.90;;;21.15;65.11;101607.72;4939962;28;97668;-46
2023/06/23 05:13:10;;;;;;;8.07;4.87;;;20.80;99.90;;;21.20;65.09;101616.31;4965757;28;97379;-45
2023/06/23 05:15:36;;;;;;;7.43;4.27;;;20.90;99.90;;;21.21;65.20;101618.03;4962747;28;97454;-44
2023/06/23 05:18:05;;;;;;;6.63;4.27;;;20.90;99.90;;;21.19;65.29;101618.13;4963950;28;112993;-43
2023/06/23 05:20:32;;;;;;;8.60;5.03;;;20.90;99.90;;;21.17;65.31;101621.88;4943815;28;97491;-44
2023/06/23 05:23:02;;;;;;;11.63;5.23;;;20.80;99.90;;;21.17;65.49;101633.47;4954579;28;99087;-43
2023/06/23 05:25:30;;;;;;;7.73;4.77;;;20.90;99.90;;;21.14;65.42;101632.81;4959241;28;101824;-45
2023/06/23 05:28:02;;;;;;;8.40;4.93;;;20.80;99.90;;;21.14;65.71;101640.88;4937545;28;101533;-43
2023/06/23 05:30:29;;;;;;;5.40;3.07;;;20.80;99.90;;;21.09;65.56;101642.00;4945665;28;97302;-43
2023/06/23 05:32:58;;;;;;;8.50;4.57;;;20.80;99.90;;;21.12;65.57;101637.41;4943559;28;97741;-44
2023/06/23 05:35:26;;;;;;;8.47;5.30;;;20.80;99.90;;;21.16;65.57;101641.63;4944066;28;101998;-43
2023/06/23 05:37:52;;;;;;;9.07;4.90;;;20.90;99.90;;;21.15;65.52;101638.09;4963646;28;97595;-43
2023/06/23 05:40:18;;;;;;;9.53;4.57;;;20.80;99.90;;;21.15;65.29;101651.50;4944052;28;97605;-43
2023/06/23 05:42:45;;;;;;;10.70;5.40;;;20.80;99.90;;;21.10;65.95;101649.09;4953930;28;116052;-43
2023/06/23 05:45:11;;;;;;;9.80;4.47;;;20.80;99.90;;;21.17;65.32;101643.34;4939692;28;114679;-43
2023/06/23 05:48:02;;;;;;;9.90;5.93;;;20.90;99.90;;;21.17;65.34;101648.72;4937410;28;112912;-43
2023/06/23 05:50:32;;;;;;;9.50;5.20;;;20.90;99.90;;;21.19;65.69;101654.84;4951559;28;97574;-45
2023/06/23 05:53:07;;;;;;;8.90;5.20;;;20.90;99.90;;;21.13;65.49;101657.94;4946218;28;97378;-45
2023/06/23 05:55:41;;;;;;;10.60;5.87;;;20.80;99.90;;;21.16;65.82;101652.34;4948504;28;101234;-43
2023/06/23 05:58:12;;;;;;;9.20;5.90;;;20.80;99.90;;;21.17;65.34;101654.09;4941753;28;97097;-43
2023/06/23 06:00:45;;;;;;;9.87;5.83;;;20.80;99.90;;;21.21;65.92;101663.66;4937104;28;98732;-43
2023/06/23 06:03:15;;;;;;;9.33;5.83;;;20.80;99.90;;;21.19;66.18;101657.53;4935390;28;97201;-45
2023/06/23 06:05:47;;;;;;;12.50;6.47;;;20.90;99.90;;;21.22;65.31;101673.41;4934657;28;97488;-45
2023/06/23 06:08:14;;;;;;;10.67;5.90;;;20.90;99.90;;;21.25;65.46;101675.94;4936976;28;97189;-47
2023/06/23 06:10:41;;;;;;;10.27;5.80;;;20.90;99.90;;;21.28;65.03;101673.06;4944587;28;99633;-43
2023/06/23 06:13:08;;;;;;;7.87;4.83;;;21.00;99.90;;;21.37;64.46;101672.47;4943559;28;97458;-46
2023/06/23 06:15:34;;;;;;;9.40;5.37;;;21.10;99.90;;;21.27;65.87;101682.09;4942687;28;109126;-45
2023/06/23 06:18:05;;;;;;;4.70;3.53;;;21.00;99.90;;;21.31;65.49;101683.59;4960916;28;101960;-45
2023/06/23 06:20:32;;;;;;;8.40;5.60;;;21.00;99.90;;;21.26;65.96;101688.38;4955487;28;97545;-43
2023/06/23 06:22:59;;;;;;;12.97;5.97;;;21.00;99.90;;;21.27;65.73;101695.50;4937061;28;97552;-45
2023/06/23 06:25:26;;;;;;;9.67;5.57;;;20.90;99.90;;;21.27;66.99;101699.03;4960951;28;100459;-48
2023/06/23 06:27:55;;;;;;;8.50;5.60;;;20.90;99.90;;;21.30;66.05;101697.97;4940656;28;108673;-43
2023/06/23 06:30:22;;;;;;;9.33;5.90;;;21.00;99.90;;;21.34;65.52;101696.81;4954521;28;120035;-44
2023/06/23 06:32:51;;;;;;;8.77;6.50;;;21.10;99.90;;;21.29;67.39;101705.16;4957672;28;97397;-43
2023/06/23 06:35:18;;;;;;;9.73;6.93;;;21.10;99.90;;;21.29;65.89;101707.00;4940964;28;97378;-51
2023/06/23 06:37:49;;;;;;;10.77;7.13;;;21.00;99.90;;;21.24;65.72;101698.31;4950612;28;98224;-44
2023/06/23 06:40:19;;;;;;;10.90;6.50;;;21.00;99.90;;;21.22;65.96;101700.25;4946002;28;97218;-44
2023/06/23 06:42:44;;;;;;;14.37;6.40;;;21.00;99.90;;;21.26;65.77;101712.53;4942668;28;97296;-45
2023/06/23 06:45:10;;;;;;;8.97;6.17;;;21.00;99.90;;;21.30;65.18;101719.44;4959943;28;115150;-43
2023/06/23 06:47:43;;;;;;;10.57;5.57;;;21.00;99.90;;;21.32;66.38;101723.75;4955258;28;98136;-45
2023/06/23 06:50:14;;;;;;;5.07;3.53;;;21.10;99.90;;;21.38;65.55;101727.84;4959431;28;97309;-43
2023/06/23 06:52:41;;;;;;;7.30;4.73;;;21.20;99.90;;;21.43;64.86;101733.81;4953239;28;97367;-45
2023/06/23 06:55:14;;;;;;;7.90;5.00;;;21.20;99.90;;;21.39;66.69;101733.13;4942815;28;97501;-43
2023/06/23 06:57:41;;;;;;;10.80;7.37;;;21.10;99.90;;;21.42;66.07;101734.78;4958097;28;97446;-45
2023/06/23 07:00:09;;;;;;;11.50;6.80;;;21.20;99.90;;;21.48;65.32;101734.38;4954362;28;97282;-43
2023/06/23 07:02:38;;;;;;;11.83;7.47;;;21.20;99.90;;;21.50;65.66;101743.19;4936856;28;100082;-45
2023/06/23 07:05:05;;;;;;;10.20;6.47;;;21.30;99.90;;;21.51;64.76;101736.84;4957542;28;97489;-46
2023/06/23 07:07:31;;;;;;;11.77;6.83;;;21.30;99.90;;;21.50;64.36;101745.00;4954301;28;102864;-43
2023/06/23 07:09:58;;;;;;;13.83;7.57;;;21.20;99.90;;;21.52;64.52;101746.63;4932269;28;97236;-44
2023/06/23 07:12:24;;;;;;;10.53;6.93;;;21.30;99.90;;;21.50;64.42;101755.75;4955648;28;97187;-45
2023/06/23 07:14:50;;;;;;;9.17;6.33;;;21.30;99.90;;;21.47;64.86;101762.16;4958769;28;97357;-45
2023/06/23 07:17:16;;;;;;;11.13;6.53;;;21.30;99.90;;;21.48;64.58;101765.72;4932497;28;97536;-43
2023/06/23 07:19:42;;;;;;;9.13;6.33;;;21.30;99.90;;;21.44;64.71;101773.09;4956586;28;97267;-44
2023/06/23 07:22:08;;;;;;;10.30;6.63;;;21.20;99.90;;;21.42;65.32;101766.97;4954447;28;97605;-43
2023/06/23 07:24:34;;;;;;;10.57;7.33;;;21.20;99.90;;;21.45;65.32;101773.97;4958811;28;98004;-46
2023/06/23 07:27:00;;;;;;;12.03;6.27;;;21.20;99.90;;;21.47;65.55;101774.72;4963814;28;106118;-44
2023/06/23 07:29:26;;;;;;;15.10;8.43;;;21.20;99.90;;;21.49;65.30;101773.66;4961113;28;97270;-45
2023/06/23 07:31:52;;;;;;;11.83;7.70;;;21.30;99.90;;;21.51;65.39;101777.09;4952981;28;97620;-44
2023/06/23 07:34:18;;;;;;;13.50;7.93;;;21.30;99.90;;;21.55;64.63;101784.00;4950859;28;97400;-47
2023/06/23 07:36:44;;;;;;;13.03;8.20;;;21.30;99.90;;;21.50;64.62;101785.25;4953569;28;105865;-47
2023/06/23 07:39:10;;;;;;;10.57;6.93;;;21.30;99.90;;;21.50;64.71;101785.25;4932535;28;103247;-45
2023/06/23 07:41:36;;;;;;;10.73;7.27;;;21.30;99.90;;;21.53;63.61;101774.31;4950686;28;97326;-45
2023/06/23 07:44:03;;;;;;;14.60;8.20;;;21.40;99.90;;;21.52;64.72;101784.19;4960812;28;97409;-45
2023/06/23 07:46:29;;;;;;;13.00;8.07;;;21.40;99.90;;;21.43;65.25;101795.53;4956568;28;97252;-45
2023/06/23 07:48:55;;;;;;;11.50;7.93;;;21.30;99.90;;;21.37;66.62;101790.53;4955249;28;97430;-44
2023/06/23 07:51:21;;;;;;;12.80;7.63;;;21.20;99.90;;;21.43;65.59;101795.53;4953129;28;105459;-43
2023/06/23 07:53:47;;;;;;;12.20;7.63;;;21.20;99.90;;;21.43;64.65;101792.84;4955303;28;97348;-44
2023/06/23 07:56:12;;;;;;;7.53;4.23;;;21.20;99.90;;;21.48;64.08;101792.56;4954080;28;111226;-43
2023/06/23 07:58:41;;;;;;;15.70;6.60;;;21.30;99.90;;;21.48;65.94;101793.41;4945229;28;116851;-43
2023/06/23 08:01:07;;;;;;;14.10;7.57;;;21.30;99.90;;;21.52;65.67;101794.94;4953218;28;117320;-46
2023/06/23 08:03:33;;;;;;;10.13;6.33;;;21.30;99.90;;;21.60;64.44;101797.16;4954220;28;99294;-43
2023/06/23 08:06:00;;;;;;;9.20;5.87;;;21.40;99.90;;;21.67;63.28;101793.09;4959382;28;105766;-47
2023/06/23 08:08:26;;;;;;;9.73;6.60;;;21.50;99.90;;;21.68;64.04;101801.03;4954715;28;97290;-51
2023/06/23 08:10:52;;;;;;;13.80;7.03;;;21.60;99.90;;;21.67;63.92;101796.63;4954033;28;97585;-44
2023/06/23 08:13:18;;;;;;;9.73;5.97;;;21.50;99.90;;;21.68;64.03;101794.81;4956575;28;98969;-43
2023/06/23 08:15:44;;;;;;;10.20;5.43;;;21.50;99.90;;;21.69;65.22;101801.91;4952700;28;97591;-45
2023/06/23 08:18:10;;;;;;;8.73;5.70;;;21.50;99.90;;;21.71;63.33;101796.47;4954394;28;100230;-46
2023/06/23 08:20:36;;;;;;;4.67;3.20;;;21.60;99.90;;;21.81;63.19;101797.56;4952441;28;98153;-44
2023/06/23 08:23:01;;;;;;;8.73;5.60;;;21.70;99.90;;;21.86;64.83;101803.53;4957899;28;107878;-46
2023/06/23 08:25:27;;;;;;;6.53;4.37;;;21.80;99.90;;;21.91;63.94;101802.25;4951600;28;100477;-46
2023/06/23 08:27:53;;;;;;;12.47;6.13;;;21.80;99.90;;;21.92;64.06;101808.50;4952763;28;106850;-44
2023/06/23 08:30:27;;;;;;;8.70;4.73;;;21.80;99.90;;;22.00;63.06;101810.69;4951823;28;97132;-44
2023/06/23 08:32:53;;;;;;;8.47;4.93;;;21.90;99.90;;;21.95;62.03;101810.97;4950591;28;101639;-46
2023/06/23 08:35:19;;;;;;;8.03;4.93;;;21.90;99.90;;;22.01;61.83;101810.59;4953005;28;97261;-45
2023/06/23 08:37:44;;;;;;;6.50;4.60;;;21.90;99.90;;;22.00;61.33;101822.31;4953942;28;99938;-43
2023/06/23 08:40:11;;;;;;;6.57;4.70;;;21.90;99.90;;;22.00;61.18;101816.94;4950803;28;97521;-45
2023/06/23 08:42:37;;;;;;;6.30;4.23;;;22.00;99.90;;;22.01;60.85;101824.03;4953727;28;98547;-43
2023/06/23 08:45:04;;;;;;;5.37;3.60;;;21.90;99.90;;;22.04;61.41;101817.56;4956359;28;109433;-45
2023/06/23 08:47:38;;;;;;;5.93;3.90;;;22.00;99.90;;;22.09;62.54;101832.47;4943092;28;97836;-44
2023/06/23 08:50:05;;;;;;;5.13;3.40;;;22.00;99.90;;;22.06;60.84;101829.97;4939487;28;97164;-43
2023/06/23 08:52:31;;;;;;;7.27;4.73;;;22.00;99.90;;;22.09;61.14;101837.84;4960413;28;101701;-45
2023/06/23 08:54:57;;;;;;;6.77;3.93;;;22.00;99.90;;;22.10;60.65;101834.19;4936063;28;97355;-43
2023/06/23 08:57:23;;;;;;;7.10;3.87;;;22.00;99.90;;;22.15;60.61;101842.81;4960938;28;97366;-44
2023/06/23 08:59:49;;;;;;;5.33;3.63;;;22.10;99.90;;;22.14;59.69;101838.41;4952877;28;108397;-46
2023/06/23 09:02:15;;;;;;;6.20;3.67;;;22.10;99.90;;;22.17;58.22;101838.19;4960851;28;111416;-44
2023/06/23 09:04:41;;;;;;;4.67;2.93;;;22.10;99.90;;;22.22;59.35;101844.13;4949429;28;97151;-45
2023/06/23 09:07:07;;;;;;;5.47;3.53;;;22.20;99.90;;;22.22;58.05;101843.25;4957203;28;106420;-44
2023/06/23 09:09:33;;;;;;;6.33;3.30;;;22.20;99.90;;;22.29;59.38;101843.75;4946958;28;98228;-44
2023/06/23 09:11:59;;;;;;;4.03;2.20;;;22.20;99.90;;;22.31;59.94;101847.19;4944410;28;105971;-43
2023/06/23 09:14:32;;;;;;;4.73;2.03;;;22.30;99.90;;;22.36;59.59;101861.16;4945491;28;97614;-43
2023/06/23 09:16:58;;;;;;;4.80;2.60;;;22.30;99.90;;;22.43;59.26;101855.31;4955752;28;97367;-47
2023/06/23 09:19:26;;;;;;;4.27;2.27;;;22.40;99.90;;;22.45;58.36;101855.19;4958137;28;97169;-45
2023/06/23 09:21:53;;;;;;;5.53;3.13;;;22.50;99.90;;;22.50;59.83;101855.75;4958242;28;100110;-44
2023/06/23 09:24:18;;;;;;;7.07;3.67;;;22.50;99.90;;;22.47;58.78;101862.19;4942165;28;98375;-48
2023/06/23 09:26:49;;;;;;;5.13;3.00;;;22.50;99.90;;;22.51;58.45;101870.91;4961773;28;103791;-44
2023/06/23 09:29:18;;;;;;;5.00;3.10;;;22.50;99.90;;;22.52;57.17;101861.88;4959379;28;98143;-45
2023/06/23 09:31:49;;;;;;;4.97;2.93;;;22.50;99.90;;;22.58;58.26;101866.84;4960225;28;98623;-43
2023/06/23 09:34:30;;;;;;;6.83;3.63;;;22.60;99.90;;;22.63;59.18;101862.03;4952741;28;97521;-43
2023/06/23 09:37:33;;;;;;;5.63;3.47;;;22.60;99.90;;;22.59;60.38;101867.72;4957556;28;97057;-45
2023/06/23 09:39:59;;;;;;;3.77;3.10;;;22.60;99.90;;;22.59;58.47;101863.19;4933997;28;97032;-45
2023/06/23 09:42:25;;;;;;;5.27;3.10;;;22.60;99.90;;;22.65;58.73;101861.91;5363467;22;112990;-51
2023/06/23 09:44:51;;;;;;;6.63;3.03;;;22.70;99.90;;;22.65;59.07;101868.16;4957581;28;119332;-55
2023/06/23 09:47:21;;;;;;;3.93;2.50;;;22.70;99.90;;;22.66;58.78;101872.56;4957195;27;97302;-55
2023/06/23 09:49:49;;;;;;;3.97;2.83;;;22.70;99.90;;;22.66;57.17;101886.00;4952604;27;103761;-53
2023/06/23 09:52:24;;;;;;;5.63;3.37;;;22.60;99.90;;;22.65;58.34;101880.75;4949242;27;98544;-53
2023/06/23 09:54:50;;;;;;;4.03;2.73;;;22.70;99.90;;;22.66;57.94;101891.38;4953450;27;97780;-54
2023/06/23 09:57:19;;;;;;;3.47;2.23;;;22.60;99.90;;;22.67;57.59;101886.88;4951947;27;97034;-53
2023/06/23 09:59:50;;;;;;;9.57;3.80;;;22.60;99.90;;;22.68;58.14;101884.06;4954121;28;97536;-54
2023/06/23 10:02:27;;;;;;;5.13;3.30;;;22.70;99.90;;;22.70;59.26;101892.03;4943859;27;97279;-55
2023/06/23 10:05:05;;;;;;;6.30;3.73;;;22.70;99.90;;;22.76;58.62;101891.66;4951446;28;105412;-55
2023/06/23 10:07:32;;;;;;;5.93;3.75;;;22.70;99.90;;;22.72;57.85;101901.75;4951408;28;97630;-55
2023/06/23 10:10:04;;;;;;;5.95;3.95;;;22.80;99.90;;;22.75;57.27;101895.31;4960131;27;97313;-53
2023/06/23 10:12:33;;;;;;;6.72;4.05;;;22.80;99.90;;;22.76;58.12;101897.88;4954012;28;101766;-55
2023/06/23 10:14:59;;;;;;;6.50;3.92;;;22.80;99.90;;;22.84;57.75;101895.56;4955073;27;101548;-56
2023/06/23 10:17:25;;;;;;;4.07;3.22;;;22.90;99.90;;;22.89;58.08;101897.09;4965761;28;99068;-54
2023/06/23 10:19:54;;;;;;;3.83;2.45;;;22.90;99.90;;;22.90;58.76;101893.44;4953085;28;97423;-55
2023/06/23 10:22:22;;;;;;;5.13;3.00;;;23.00;99.90;;;22.90;57.77;101898.81;4951125;27;97718;-55
2023/06/23 10:24:51;;;;;;;6.25;3.00;;;23.00;99.90;;;22.85;57.07;101908.03;4958037;28;99002;-55